createdAt,value
2022-11-17T00:02:19.318Z,53.89
2022-11-17T00:04:45.999Z,54.14
2022-11-17T00:07:12.622Z,53.87
2022-11-17T00:09:39.241Z,53.55
2022-11-17T00:12:27.270Z,53.81
2022-11-17T00:14:57.945Z,53.89
2022-11-17T00:17:24.482Z,53.97
2022-11-17T00:20:09.736Z,54.30
2022-11-17T00:22:36.237Z,54.31
2022-11-17T00:25:02.798Z,54.13
2022-11-17T00:27:29.285Z,54.43
2022-11-17T00:29:56.912Z,53.88
2022-11-17T00:32:42.007Z,54.40
2022-11-17T00:35:08.609Z,54.50
2022-11-17T00:38:00.249Z,54.39
2022-11-17T00:40:27.162Z,54.59
2022-11-17T00:42:53.670Z,54.42
2022-11-17T00:45:20.208Z,54.47
2022-11-17T00:47:47.781Z,54.25
2022-11-17T00:50:14.679Z,54.21
2022-11-17T00:52:41.195Z,53.86
2022-11-17T00:55:08.040Z,54.17
2022-11-17T00:57:34.629Z,54.08
2022-11-17T01:00:01.193Z,54.01
2022-11-17T01:02:27.712Z,54.09
2022-11-17T01:04:54.217Z,53.99
2022-11-17T01:07:22.686Z,54.12
2022-11-17T01:09:49.266Z,54.42
2022-11-17T01:12:15.766Z,54.07
2022-11-17T01:14:42.355Z,54.21
2022-11-17T01:17:09.052Z,53.88
2022-11-17T01:19:35.572Z,53.99
2022-11-17T01:22:02.055Z,54.55
2022-11-17T01:24:28.633Z,54.50
2022-11-17T01:26:55.120Z,54.39
2022-11-17T01:29:21.654Z,54.46
2022-11-17T01:31:51.609Z,54.10
2022-11-17T01:34:18.675Z,53.92
2022-11-17T01:37:04.029Z,53.64
2022-11-17T01:39:31.359Z,53.82
2022-11-17T01:41:58.231Z,53.83
2022-11-17T01:44:44.483Z,53.94
2022-11-17T01:47:20.695Z,53.94
2022-11-17T01:49:49.806Z,54.22
2022-11-17T01:52:16.511Z,54.63
2022-11-17T01:54:46.433Z,54.89
2022-11-17T01:57:19.474Z,54.77
2022-11-17T01:59:52.346Z,54.89
2022-11-17T02:02:19.836Z,55.03
2022-11-17T02:05:16.135Z,55.23
2022-11-17T02:07:43.108Z,55.00
2022-11-17T02:10:09.656Z,55.09
2022-11-17T02:12:36.793Z,54.45
2022-11-17T02:15:04.227Z,54.39
2022-11-17T02:17:37.674Z,55.63
2022-11-17T02:20:17.697Z,54.96
2022-11-17T02:23:24.067Z,55.35
2022-11-17T02:26:00.164Z,55.27
2022-11-17T02:28:30.292Z,55.23
2022-11-17T02:31:18.378Z,55.18
2022-11-17T02:34:03.226Z,55.57
2022-11-17T02:36:29.747Z,55.57
2022-11-17T02:39:11.042Z,55.70
2022-11-17T02:41:41.852Z,55.64
2022-11-17T02:44:15.950Z,55.76
2022-11-17T02:46:51.145Z,55.69
2022-11-17T02:49:23.907Z,55.88
2022-11-17T02:51:53.922Z,55.99
2022-11-17T02:54:22.933Z,55.46
2022-11-17T02:56:49.494Z,55.96
2022-11-17T02:59:21.075Z,55.85
2022-11-17T03:02:25.007Z,55.73
2022-11-17T03:05:09.702Z,55.35
2022-11-17T03:07:45.240Z,55.53
2022-11-17T03:10:20.281Z,55.76
2022-11-17T03:13:08.793Z,55.83
2022-11-17T03:15:41.501Z,56.01
2022-11-17T03:18:29.500Z,55.55
2022-11-17T03:21:09.494Z,55.57
2022-11-17T03:24:00.703Z,55.68
2022-11-17T03:26:33.515Z,55.52
2022-11-17T03:29:03.380Z,55.26
2022-11-17T03:31:32.209Z,55.35
2022-11-17T03:34:00.877Z,55.33
2022-11-17T03:36:34.796Z,55.04
2022-11-17T03:39:11.457Z,54.56
2022-11-17T03:41:42.786Z,54.61
2022-11-17T03:44:11.117Z,54.35
2022-11-17T03:46:39.065Z,54.49
2022-11-17T03:49:39.661Z,54.57
2022-11-17T03:52:06.910Z,54.14
2022-11-17T03:54:35.189Z,54.46
2022-11-17T03:58:16.484Z,54.45
2022-11-17T04:00:44.028Z,53.99
2022-11-17T04:03:10.529Z,54.13
2022-11-17T04:05:37.059Z,54.35
2022-11-17T04:08:03.598Z,54.52
2022-11-17T04:10:30.200Z,54.16
2022-11-17T04:13:15.315Z,54.25
2022-11-17T04:15:57.229Z,54.02
2022-11-17T04:18:23.849Z,54.45
2022-11-17T04:20:52.753Z,54.20
2022-11-17T04:23:19.959Z,54.37
2022-11-17T04:26:10.241Z,54.22
2022-11-17T04:28:40.026Z,54.14
2022-11-17T04:31:13.994Z,54.16
2022-11-17T04:33:41.620Z,54.05
2022-11-17T04:36:09.506Z,54.15
2022-11-17T04:38:36.348Z,54.35
2022-11-17T04:41:26.969Z,54.21
2022-11-17T04:43:53.862Z,53.94
2022-11-17T04:46:21.684Z,53.94
2022-11-17T04:48:48.652Z,54.03
2022-11-17T04:51:16.733Z,53.93
2022-11-17T04:53:44.212Z,54.11
2022-11-17T04:56:11.172Z,53.80
2022-11-17T04:58:37.733Z,53.75
2022-11-17T05:01:13.247Z,53.61
2022-11-17T05:03:59.993Z,53.49
2022-11-17T05:06:37.344Z,53.23
2022-11-17T05:09:10.463Z,53.58
2022-11-17T05:11:55.534Z,53.58
2022-11-17T05:14:25.077Z,53.27
2022-11-17T05:17:11.955Z,53.51
2022-11-17T05:19:41.150Z,53.18
2022-11-17T05:22:27.925Z,53.61
2022-11-17T05:24:54.706Z,53.01
2022-11-17T05:27:22.739Z,53.31
2022-11-17T05:29:49.775Z,53.25
2022-11-17T05:32:16.639Z,53.68
2022-11-17T05:34:43.258Z,54.13
2022-11-17T05:37:10.306Z,53.84
2022-11-17T05:39:36.839Z,53.67
2022-11-17T05:42:03.533Z,54.36
2022-11-17T05:44:30.091Z,54.26
2022-11-17T05:46:56.620Z,53.86
2022-11-17T05:49:23.964Z,54.06
2022-11-17T05:51:52.953Z,53.60
2022-11-17T05:54:20.250Z,53.80
2022-11-17T05:56:52.510Z,54.30
2022-11-17T05:59:28.040Z,54.26
2022-11-17T06:02:06.776Z,54.41
2022-11-17T06:04:33.366Z,55.05
2022-11-17T06:07:01.235Z,55.20
2022-11-17T06:09:31.313Z,55.18
2022-11-17T06:12:04.103Z,55.51
2022-11-17T06:14:32.708Z,55.50
2022-11-17T06:17:09.266Z,55.91
2022-11-17T06:19:41.731Z,56.92
2022-11-17T06:22:13.308Z,56.21
2022-11-17T06:24:43.087Z,56.18
2022-11-17T06:27:14.600Z,55.78
2022-11-17T06:29:44.996Z,56.23
2022-11-17T06:32:16.541Z,56.35
2022-11-17T06:34:48.034Z,56.41
2022-11-17T06:37:18.696Z,56.26
2022-11-17T06:39:45.211Z,56.15
2022-11-17T06:42:12.153Z,56.71
2022-11-17T06:44:39.224Z,56.70
2022-11-17T06:47:05.924Z,57.08
2022-11-17T06:49:32.469Z,57.01
2022-11-17T06:51:59.015Z,56.66
2022-11-17T06:54:25.656Z,57.34
2022-11-17T06:56:52.527Z,57.32
2022-11-17T06:59:19.146Z,57.11
2022-11-17T07:01:45.737Z,57.16
2022-11-17T07:04:12.337Z,56.95
2022-11-17T07:06:39.159Z,57.19
2022-11-17T07:09:05.771Z,56.98
2022-11-17T07:11:36.247Z,57.01
2022-11-17T07:14:03.017Z,57.13
2022-11-17T07:16:30.776Z,57.63
2022-11-17T07:18:59.391Z,57.46
2022-11-17T07:21:26.191Z,57.61
2022-11-17T07:23:52.837Z,57.43
2022-11-17T07:26:19.556Z,56.94
2022-11-17T07:28:46.156Z,57.37
2022-11-17T07:31:12.735Z,57.67
2022-11-17T07:33:39.282Z,57.73
2022-11-17T07:36:11.105Z,57.50
2022-11-17T07:38:39.983Z,57.96
2022-11-17T07:41:09.128Z,57.51
2022-11-17T07:43:36.961Z,57.04
2022-11-17T07:46:21.634Z,56.81
2022-11-17T07:48:48.283Z,57.19
2022-11-17T07:51:15.906Z,57.05
2022-11-17T07:53:42.482Z,57.02
2022-11-17T07:56:11.356Z,56.63
2022-11-17T07:58:39.211Z,56.87
2022-11-17T08:01:07.583Z,56.75
2022-11-17T08:03:34.681Z,56.56
2022-11-17T08:06:03.023Z,56.41
2022-11-17T08:08:29.615Z,56.42
2022-11-17T08:10:56.235Z,57.15
2022-11-17T08:13:24.255Z,57.48
2022-11-17T08:15:56.788Z,57.26
2022-11-17T08:18:23.590Z,57.53
2022-11-17T08:20:50.224Z,57.91
2022-11-17T08:23:16.943Z,57.91
2022-11-17T08:25:44.091Z,57.28
2022-11-17T08:28:10.736Z,57.46
2022-11-17T08:30:37.301Z,57.45
2022-11-17T08:33:03.995Z,57.89
2022-11-17T08:35:37.108Z,58.04
2022-11-17T08:38:04.380Z,57.62
2022-11-17T08:40:31.006Z,57.61
2022-11-17T08:43:01.410Z,57.39
2022-11-17T08:45:28.734Z,57.54
2022-11-17T08:47:58.418Z,57.79
2022-11-17T08:50:25.477Z,57.41
2022-11-17T08:52:53.008Z,57.11
2022-11-17T08:55:19.874Z,57.07
2022-11-17T08:57:46.568Z,56.82
2022-11-17T09:00:13.741Z,56.78
2022-11-17T09:02:40.523Z,56.82
2022-11-17T09:05:07.637Z,56.58
2022-11-17T09:07:35.659Z,56.69
2022-11-17T09:10:04.511Z,56.53
2022-11-17T09:12:31.640Z,56.60
2022-11-17T09:14:58.217Z,56.82
2022-11-17T09:17:24.797Z,55.87
2022-11-17T09:19:51.373Z,55.92
2022-11-17T09:22:18.027Z,55.34
2022-11-17T09:24:44.541Z,55.88
2022-11-17T09:27:11.233Z,55.69
2022-11-17T09:29:37.754Z,55.57
2022-11-17T09:32:04.416Z,55.48
2022-11-17T09:34:31.123Z,55.05
2022-11-17T09:36:57.795Z,55.20
2022-11-17T09:39:24.389Z,54.88
2022-11-17T09:41:54.982Z,54.42
2022-11-17T09:44:24.488Z,54.47
2022-11-17T09:47:01.888Z,54.29
2022-11-17T09:49:39.847Z,54.33
2022-11-17T09:52:17.549Z,54.16
2022-11-17T09:54:52.078Z,54.14
2022-11-17T09:57:27.250Z,54.05
2022-11-17T10:00:05.915Z,54.07
2022-11-17T10:02:33.101Z,53.40
2022-11-17T10:05:00.602Z,53.11
2022-11-17T10:07:30.459Z,53.50
2022-11-17T10:10:00.089Z,52.65
2022-11-17T10:12:36.220Z,52.15
2022-11-17T10:15:20.643Z,51.63
2022-11-17T10:17:47.267Z,49.23
2022-11-17T10:20:16.975Z,48.39
2022-11-17T10:22:45.320Z,48.33
2022-11-17T10:25:22.238Z,49.04
2022-11-17T10:27:53.973Z,48.74
2022-11-17T10:30:24.129Z,48.23
2022-11-17T10:32:56.010Z,47.68
2022-11-17T10:35:26.818Z,46.57
2022-11-17T10:38:13.330Z,46.52
2022-11-17T10:40:39.879Z,47.13
2022-11-17T10:43:12.482Z,47.64
2022-11-17T10:45:49.118Z,47.57
2022-11-17T10:48:33.317Z,47.29
2022-11-17T10:51:01.381Z,47.28
2022-11-17T10:53:42.981Z,46.60
2022-11-17T10:56:18.897Z,47.08
2022-11-17T10:59:12.604Z,46.77
2022-11-17T11:01:42.271Z,47.19
2022-11-17T11:04:27.082Z,44.98
2022-11-17T11:07:21.468Z,42.04
2022-11-17T11:10:17.575Z,41.41
2022-11-17T11:12:59.235Z,42.50
2022-11-17T11:15:32.928Z,42.03
2022-11-17T11:17:59.506Z,41.98
2022-11-17T11:20:47.455Z,41.85
2022-11-17T11:23:43.239Z,42.37
2022-11-17T11:26:41.308Z,42.85
2022-11-17T11:29:46.797Z,43.73
2022-11-17T11:32:53.766Z,42.61
2022-11-17T11:35:36.518Z,45.16
2022-11-17T11:38:15.139Z,44.75
2022-11-17T11:40:50.899Z,43.47
2022-11-17T11:43:59.364Z,44.17
2022-11-17T11:46:51.504Z,44.99
2022-11-17T11:49:34.530Z,44.29
2022-11-17T11:52:06.227Z,45.36
2022-11-17T11:54:40.418Z,44.95
2022-11-17T11:57:12.434Z,45.69
2022-11-17T11:59:49.154Z,45.69
2022-11-17T12:02:24.022Z,45.46
2022-11-17T12:04:55.202Z,44.77
2022-11-17T12:07:35.476Z,44.24
2022-11-17T12:10:54.388Z,43.17
2022-11-17T12:13:23.852Z,42.58
2022-11-17T12:15:50.745Z,42.83
2022-11-17T12:18:17.279Z,42.54
2022-11-17T12:20:55.559Z,43.15
2022-11-17T12:23:38.299Z,42.84
2022-11-17T12:26:05.198Z,42.92
2022-11-17T12:28:36.085Z,42.54
2022-11-17T12:31:10.170Z,43.34
2022-11-17T12:33:51.941Z,42.58
2022-11-17T12:36:30.203Z,42.93
2022-11-17T12:38:59.098Z,43.13
2022-11-17T12:41:47.076Z,41.50
2022-11-17T12:44:32.113Z,41.56
2022-11-17T12:47:10.155Z,41.68
2022-11-17T12:50:12.569Z,41.21
2022-11-17T12:52:47.261Z,40.38
2022-11-17T12:55:28.782Z,40.92
2022-11-17T12:58:10.196Z,40.92
2022-11-17T13:01:09.672Z,41.30
2022-11-17T13:03:45.630Z,40.80
2022-11-17T13:09:11.765Z,40.52
2022-11-17T13:11:38.689Z,40.56
2022-11-17T13:14:16.370Z,40.67
2022-11-17T13:16:51.024Z,41.27
2022-11-17T13:19:37.225Z,40.96
2022-11-17T13:22:16.306Z,40.86
2022-11-17T13:24:45.897Z,41.08
2022-11-17T13:27:29.276Z,41.07
2022-11-17T13:30:28.069Z,40.74
2022-11-17T13:32:56.400Z,41.02
2022-11-17T13:35:27.305Z,40.64
2022-11-17T13:38:12.233Z,40.22
2022-11-17T13:40:40.782Z,40.32
2022-11-17T13:43:13.050Z,40.01
2022-11-17T13:45:40.409Z,39.36
2022-11-17T13:48:06.981Z,39.11
2022-11-17T13:50:37.227Z,38.56
2022-11-17T13:53:24.177Z,38.92
2022-11-17T13:55:51.833Z,39.08
2022-11-17T13:58:41.106Z,40.23
2022-11-17T14:01:11.762Z,39.63
2022-11-17T14:03:40.078Z,39.60
2022-11-17T14:06:14.336Z,40.19
2022-11-17T14:09:01.130Z,39.81
2022-11-17T14:11:29.324Z,39.98
2022-11-17T14:14:01.035Z,40.22
2022-11-17T14:16:34.601Z,40.28
2022-11-17T14:19:05.682Z,40.29
2022-11-17T14:21:32.617Z,40.65
2022-11-17T14:24:03.438Z,40.87
2022-11-17T14:26:30.706Z,40.73
2022-11-17T14:29:02.176Z,40.19
2022-11-17T14:31:30.146Z,40.12
2022-11-17T14:33:57.098Z,41.39
2022-11-17T14:36:23.951Z,41.05
2022-11-17T14:38:50.729Z,40.85
2022-11-17T14:41:18.661Z,40.52
2022-11-17T14:43:45.453Z,41.10
2022-11-17T14:46:24.623Z,41.47
2022-11-17T14:48:52.620Z,41.06
2022-11-17T14:51:20.836Z,40.94
2022-11-17T14:53:47.903Z,41.03
2022-11-17T14:56:19.488Z,41.16
2022-11-17T14:58:47.413Z,40.77
2022-11-17T15:01:19.921Z,40.44
2022-11-17T15:03:46.863Z,40.60
2022-11-17T15:06:19.312Z,41.03
2022-11-17T15:08:47.071Z,40.81
2022-11-17T15:11:17.487Z,41.10
2022-11-17T15:13:44.505Z,40.83
2022-11-17T15:16:11.886Z,41.42
2022-11-17T15:18:42.487Z,41.83
2022-11-17T15:21:11.064Z,42.02
2022-11-17T15:23:39.757Z,42.76
2022-11-17T15:26:08.762Z,43.35
2022-11-17T15:28:35.433Z,43.37
2022-11-17T15:31:13.259Z,43.71
2022-11-17T15:33:44.259Z,44.22
2022-11-17T15:36:13.193Z,44.47
2022-11-17T15:38:40.336Z,44.63
2022-11-17T15:41:08.379Z,44.57
2022-11-17T15:43:37.498Z,45.23
2022-11-17T15:46:10.198Z,45.46
2022-11-17T15:48:44.369Z,46.17
2022-11-17T15:51:16.107Z,46.25
2022-11-17T15:53:44.019Z,46.73
2022-11-17T15:56:15.282Z,45.94
2022-11-17T15:58:43.110Z,46.45
2022-11-17T16:01:12.286Z,47.05
2022-11-17T16:03:40.937Z,47.12
2022-11-17T16:06:08.497Z,46.95
2022-11-17T16:08:35.355Z,46.81
2022-11-17T16:11:02.429Z,47.48
2022-11-17T16:13:32.866Z,47.60
2022-11-17T16:15:59.728Z,48.05
2022-11-17T16:18:26.646Z,48.51
2022-11-17T16:20:53.303Z,48.49
2022-11-17T16:23:19.950Z,48.51
2022-11-17T16:25:48.334Z,48.65
2022-11-17T16:28:16.510Z,48.86
2022-11-17T16:30:43.270Z,49.20
2022-11-17T16:33:16.366Z,49.60
2022-11-17T16:35:45.347Z,49.15
2022-11-17T16:38:16.820Z,48.84
2022-11-17T16:40:43.725Z,49.20
2022-11-17T16:43:12.356Z,49.04
2022-11-17T16:45:44.393Z,49.69
2022-11-17T16:48:12.368Z,49.62
2022-11-17T16:50:41.015Z,49.46
2022-11-17T16:53:07.713Z,50.41
2022-11-17T16:55:37.575Z,50.09
2022-11-17T16:58:05.834Z,50.47
2022-11-17T17:00:34.767Z,49.75
2022-11-17T17:03:01.991Z,50.06
2022-11-17T17:05:31.471Z,50.14
2022-11-17T17:07:58.073Z,50.19
2022-11-17T17:10:24.665Z,50.50
2022-11-17T17:12:51.247Z,50.49
2022-11-17T17:15:17.951Z,50.60
2022-11-17T17:17:44.492Z,50.88
2022-11-17T17:20:11.357Z,50.90
2022-11-17T17:22:37.905Z,51.90
2022-11-17T17:25:04.911Z,51.23
2022-11-17T17:27:31.583Z,51.19
2022-11-17T17:29:58.190Z,51.55
2022-11-17T17:32:24.819Z,51.64
2022-11-17T17:34:51.616Z,50.95
2022-11-17T17:37:18.342Z,51.20
2022-11-17T17:39:45.135Z,50.68
2022-11-17T17:42:12.455Z,51.02
2022-11-17T17:44:38.986Z,51.08
2022-11-17T17:47:05.629Z,50.97
2022-11-17T17:49:32.326Z,51.36
2022-11-17T17:51:58.894Z,51.43
2022-11-17T17:54:26.174Z,51.67
2022-11-17T17:56:53.006Z,51.60
2022-11-17T17:59:20.025Z,51.52
2022-11-17T18:01:47.540Z,51.42
2022-11-17T18:04:16.087Z,51.45
2022-11-17T18:06:47.285Z,51.58
2022-11-17T18:09:15.574Z,51.32
2022-11-17T18:11:45.925Z,51.40
2022-11-17T18:14:13.282Z,51.13
2022-11-17T18:16:40.244Z,51.19
2022-11-17T18:19:09.106Z,51.79
2022-11-17T18:21:36.172Z,51.63
2022-11-17T18:24:03.784Z,51.59
2022-11-17T18:26:35.923Z,51.96
2022-11-17T18:29:05.620Z,52.26
2022-11-17T18:31:34.486Z,52.23
2022-11-17T18:34:03.636Z,52.24
2022-11-17T18:36:30.845Z,52.10
2022-11-17T18:39:00.311Z,52.02
2022-11-17T18:41:27.475Z,51.90
2022-11-17T18:43:54.817Z,52.09
2022-11-17T18:46:23.314Z,52.62
2022-11-17T18:48:51.872Z,52.66
2022-11-17T18:51:24.155Z,52.59
2022-11-17T18:53:52.361Z,52.74
2022-11-17T18:56:21.650Z,52.77
2022-11-17T18:58:48.340Z,53.07
2022-11-17T19:01:22.266Z,52.71
2022-11-17T19:03:49.781Z,52.57
2022-11-17T19:06:18.091Z,52.28
2022-11-17T19:08:45.180Z,52.65
2022-11-17T19:11:12.342Z,52.72
2022-11-17T19:13:41.180Z,53.08
2022-11-17T19:16:10.647Z,53.17
2022-11-17T19:18:37.953Z,52.88
2022-11-17T19:21:07.862Z,52.45
2022-11-17T19:23:36.033Z,52.46
2022-11-17T19:26:05.144Z,52.44
2022-11-17T19:28:32.631Z,52.46
2022-11-17T19:31:07.670Z,52.30
2022-11-17T19:33:36.541Z,52.22
2022-11-17T19:36:17.888Z,52.06
2022-11-17T19:38:47.105Z,51.72
2022-11-17T19:41:15.810Z,51.53
2022-11-17T19:43:45.485Z,52.17
2022-11-17T19:46:16.949Z,52.00
2022-11-17T19:48:44.966Z,52.44
2022-11-17T19:51:13.207Z,51.80
2022-11-17T19:53:40.013Z,51.19
2022-11-17T19:56:07.110Z,51.42
2022-11-17T19:58:33.809Z,51.68
2022-11-17T20:01:07.576Z,51.71
2022-11-17T20:03:34.885Z,51.95
2022-11-17T20:06:01.887Z,51.75
2022-11-17T20:08:29.769Z,51.89
2022-11-17T20:11:10.315Z,52.05
2022-11-17T20:13:37.633Z,52.58
2022-11-17T20:16:11.808Z,52.46
2022-11-17T20:18:38.720Z,52.40
2022-11-17T20:21:06.492Z,53.01
2022-11-17T20:23:35.214Z,52.60
2022-11-17T20:26:07.012Z,52.15
2022-11-17T20:28:35.663Z,52.18
2022-11-17T20:31:10.316Z,52.54
2022-11-17T20:33:38.355Z,54.17
2022-11-17T20:36:05.763Z,54.50
2022-11-17T20:38:32.497Z,54.38
2022-11-17T20:41:00.547Z,54.52
2022-11-17T20:43:28.249Z,54.80
2022-11-17T20:45:55.882Z,54.79
2022-11-17T20:48:23.565Z,54.41
2022-11-17T20:51:00.452Z,54.37
2022-11-17T20:53:28.094Z,54.72
2022-11-17T20:55:56.082Z,54.92
2022-11-17T20:58:23.768Z,55.28
2022-11-17T21:00:50.669Z,55.12
2022-11-17T21:03:17.428Z,55.15
2022-11-17T21:05:43.986Z,54.97
2022-11-17T21:08:10.595Z,54.86
2022-11-17T21:10:37.293Z,54.91
2022-11-17T21:13:03.950Z,55.24
2022-11-17T21:15:30.533Z,55.38
2022-11-17T21:18:15.582Z,55.40
2022-11-17T21:20:42.727Z,54.92
2022-11-17T21:23:09.298Z,54.92
2022-11-17T21:25:36.578Z,55.25
2022-11-17T21:28:03.248Z,54.72
2022-11-17T21:30:29.878Z,55.17
2022-11-17T21:32:56.433Z,55.32
2022-11-17T21:35:22.955Z,55.08
2022-11-17T21:37:49.563Z,55.44
2022-11-17T21:40:16.553Z,55.33
2022-11-17T21:42:44.133Z,54.96
2022-11-17T21:45:10.967Z,55.07
2022-11-17T21:47:37.579Z,54.96
2022-11-17T21:50:04.476Z,55.05
2022-11-17T21:52:31.074Z,55.17
2022-11-17T21:54:57.703Z,54.97
2022-11-17T21:57:24.308Z,54.65
2022-11-17T21:59:50.928Z,54.47
2022-11-17T22:02:17.509Z,54.07
2022-11-17T22:04:44.077Z,54.14
2022-11-17T22:07:10.714Z,53.70
2022-11-17T22:09:37.446Z,53.89
2022-11-17T22:12:04.181Z,53.82
2022-11-17T22:14:31.445Z,53.64
2022-11-17T22:16:58.028Z,53.58
2022-11-17T22:19:28.478Z,54.19
2022-11-17T22:21:55.091Z,54.01
2022-11-17T22:24:21.816Z,54.11
2022-11-17T22:26:48.851Z,54.16
2022-11-17T22:29:18.518Z,54.31
2022-11-17T22:31:46.327Z,54.69
2022-11-17T22:34:13.650Z,55.45
2022-11-17T22:36:40.251Z,55.63
2022-11-17T22:39:06.946Z,55.96
2022-11-17T22:41:33.588Z,56.52
2022-11-17T22:44:00.423Z,56.61
2022-11-17T22:46:28.069Z,57.23
2022-11-17T22:48:54.893Z,57.25
2022-11-17T22:51:40.654Z,57.96
2022-11-17T22:54:08.520Z,57.37
2022-11-17T22:56:35.968Z,57.25
2022-11-17T22:59:02.630Z,58.11
2022-11-17T23:01:29.172Z,57.97
2022-11-17T23:03:55.782Z,57.57
2022-11-17T23:06:22.753Z,58.14
2022-11-17T23:08:49.705Z,57.83
2022-11-17T23:11:36.075Z,57.75
2022-11-17T23:14:03.107Z,58.13
2022-11-17T23:16:29.981Z,58.27
2022-11-17T23:18:56.946Z,58.78
2022-11-17T23:21:23.789Z,58.69
2022-11-17T23:23:51.054Z,58.72
2022-11-17T23:26:18.049Z,58.71
2022-11-17T23:28:45.129Z,59.20
2022-11-17T23:31:13.833Z,59.55
2022-11-17T23:33:42.512Z,59.55
2022-11-17T23:36:14.044Z,59.51
2022-11-17T23:38:40.581Z,59.85
2022-11-17T23:41:10.194Z,59.70
2022-11-17T23:43:36.784Z,60.42
2022-11-17T23:46:05.729Z,59.90
2022-11-17T23:48:32.462Z,59.99
2022-11-17T23:50:59.190Z,59.99
2022-11-17T23:53:25.920Z,59.98
2022-11-17T23:55:56.484Z,60.03
2022-11-17T23:58:24.178Z,60.71
